Taft, OK

5:40 AM CDT on March 27, 2015 (GMT -0500)
West of Muskogee | | Change Station
CLOSE
Current Station
Personal Weather Station
Location: Muskogee, OK
Elevation: 722 ft
Nearby Weather Stations

Elev 722 ft 35.77 °N, 95.44 °W | Updated 2 minutes ago

Partly Cloudy
Partly Cloudy
41.6 °F
Feels Like 42 °F
N
0.0
Wind Variable Wind from NNE
Gusts 0.0 mph

Today
High -- | Low -- °F
--% Chance of Precip.
Yesterday
High -- | Low -- °F
Precip. -- in
7:16 AM 7:39 PM
Waxing Crescent, 51% visible
Pressure 30.06 in
Visibility 10.0 miles
Clouds Clear
Windchill 42 °F
Dew Point 36 °F
Humidity 79%
Rainfall 0.00 in
Snow Depth Not available.
UV 0 out of 12
Pollen 8.40 out of 12
Air Quality Not available.
Flu Activity Not available.
METAR KMKO 270953Z AUTO 00000KT 10SM CLR 05/02 A3006 RMK AO2 SLP177 T00500022

More Conditions Fewer Conditions

Pressure 30.06 in
Visibility 10.0 miles
Clouds Clear
Windchill 42 °F
Dew Point 36 °F
Humidity 79%
Rainfall 0.00 in
Snow Depth Not available.
UV 0 out of 12
Pollen 8.40 out of 12
Air Quality Not available.
Flu Activity Not available.
METAR KMKO 270953Z AUTO 00000KT 10SM CLR 05/02 A3006 RMK AO2 SLP177 T00500022

More Conditions Fewer Conditions

Nowcast | as of 4:55 am CDT on March 27, 2015

At 455 am...Doppler radars continued to indicate isolated very light showers across portions of far northwest Arkansas pushing to the southeast at 40 mph. Through 7 am...light showers will continue to affect areas to the north and east of a line from Rogers to Huntsville. Rainfall amounts will be light...and likely not more than a few hundredths of an inch at most.

×

10-Day Weather Forecast

Almanac

Astronomy

Mar. 27, 2015 Rise Set
Actual Time
Civil Twilight
Nautical Twilight
Astronomical Twilight
Moon
Length of Visible Light
Length of Day
Tomorrow will be .
, % of the Moon is Illuminated

Today's Extremes

State Highs State Lows

Community

WunderPhotos

Upload Photos

1,808,706 photos uploaded!

WunderBlogs® & News

Nearby

Air Quality

  Air Quality AQ Index Pollutant
Not available.

Snow Depth

Station Depth Elevation

Earthquake Activity

City Distance Mag. Time & Date
Minimum magnitude displayed is 2.5.

Coastal Water Temperatures

Place Temperature

Stations

Nearby Weather Stations

Station Location Temp. Windchill Dew Point Humidity Wind Precip. Elev Updated Type